sensor_id;sensor_type;location;lat;lon;timestamp;pressure;altitude;pressure_sealevel;temperature;humidity
49835;BME280;35729;52.090;13.162;2023-03-04T00:01:20;101403.91;;;1.04;89.05
49835;BME280;35729;52.090;13.162;2023-03-04T00:03:49;101398.69;;;1.03;89.01
49835;BME280;35729;52.090;13.162;2023-03-04T00:06:17;101395.16;;;0.99;89.30
49835;BME280;35729;52.090;13.162;2023-03-04T00:08:46;101396.81;;;0.97;89.25
49835;BME280;35729;52.090;13.162;2023-03-04T00:11:14;101388.94;;;0.92;89.07
49835;BME280;35729;52.090;13.162;2023-03-04T00:13:43;101394.91;;;0.90;89.13
49835;BME280;35729;52.090;13.162;2023-03-04T00:16:14;101365.06;;;0.71;89.18
49835;BME280;35729;52.090;13.162;2023-03-04T00:18:49;101393.84;;;0.85;89.32
49835;BME280;35729;52.090;13.162;2023-03-04T00:21:17;101386.88;;;0.80;89.70
49835;BME280;35729;52.090;13.162;2023-03-04T00:23:46;101383.31;;;0.77;89.17
49835;BME280;35729;52.090;13.162;2023-03-04T00:26:15;101389.38;;;0.77;89.49
49835;BME280;35729;52.090;13.162;2023-03-04T00:28:44;101393.53;;;0.72;89.23
49835;BME280;35729;52.090;13.162;2023-03-04T00:31:15;101387.47;;;0.72;89.33
49835;BME280;35729;52.090;13.162;2023-03-04T00:33:43;101371.94;;;0.70;89.53
49835;BME280;35729;52.090;13.162;2023-03-04T00:36:12;101371.88;;;0.67;89.55
49835;BME280;35729;52.090;13.162;2023-03-04T00:38:40;101369.31;;;0.69;89.83
49835;BME280;35729;52.090;13.162;2023-03-04T00:41:09;101372.69;;;0.66;89.63
49835;BME280;35729;52.090;13.162;2023-03-04T00:43:37;101371.75;;;0.64;89.78
49835;BME280;35729;52.090;13.162;2023-03-04T00:46:06;101377.81;;;0.64;90.17
49835;BME280;35729;52.090;13.162;2023-03-04T00:48:37;101374.34;;;0.64;89.99
49835;BME280;35729;52.090;13.162;2023-03-04T00:51:05;101364.84;;;0.63;90.29
49835;BME280;35729;52.090;13.162;2023-03-04T00:53:34;101371.75;;;0.64;90.34
49835;BME280;35729;52.090;13.162;2023-03-04T00:56:03;101371.78;;;0.65;90.14
49835;BME280;35729;52.090;13.162;2023-03-04T00:58:31;101362.41;;;0.68;90.44
49835;BME280;35729;52.090;13.162;2023-03-04T01:01:00;101362.44;;;0.69;90.46
49835;BME280;35729;52.090;13.162;2023-03-04T01:03:28;101362.53;;;0.72;90.28
49835;BME280;35729;52.090;13.162;2023-03-04T01:06:00;101357.44;;;0.75;90.53
49835;BME280;35729;52.090;13.162;2023-03-04T01:08:28;101358.38;;;0.77;90.30
49835;BME280;35729;52.090;13.162;2023-03-04T01:10:57;101354.09;;;0.79;89.99
49835;BME280;35729;52.090;13.162;2023-03-04T01:13:25;101329.22;;;0.81;90.28
49835;BME280;35729;52.090;13.162;2023-03-04T01:15:54;101332.75;;;0.85;89.98
49835;BME280;35729;52.090;13.162;2023-03-04T01:18:23;101338.88;;;0.89;89.99
49835;BME280;35729;52.090;13.162;2023-03-04T01:20:52;101337.19;;;0.91;89.70
49835;BME280;35729;52.090;13.162;2023-03-04T01:23:23;101327.75;;;0.91;89.75
49835;BME280;35729;52.090;13.162;2023-03-04T01:25:51;101319.25;;;0.95;89.75
49835;BME280;35729;52.090;13.162;2023-03-04T01:28:20;101314.03;;;0.94;89.44
49835;BME280;35729;52.090;13.162;2023-03-04T01:30:55;101307.31;;;1.01;89.29
49835;BME280;35729;52.090;13.162;2023-03-04T01:33:23;101328.13;;;1.05;89.24
49835;BME280;35729;52.090;13.162;2023-03-04T01:35:52;101315.28;;;1.08;89.23
49835;BME280;35729;52.090;13.162;2023-03-04T01:38:24;101314.47;;;1.11;89.04
49835;BME280;35729;52.090;13.162;2023-03-04T01:40:52;101298.19;;;1.13;89.15
49835;BME280;35729;52.090;13.162;2023-03-04T01:43:23;101307.78;;;1.18;88.96
49835;BME280;35729;52.090;13.162;2023-03-04T01:45:53;101302.69;;;1.21;88.60
49835;BME280;35729;52.090;13.162;2023-03-04T01:48:26;101300.16;;;1.24;88.36
49835;BME280;35729;52.090;13.162;2023-03-04T01:50:55;101307.09;;;1.25;88.04
49835;BME280;35729;52.090;13.162;2023-03-04T01:53:31;101299.41;;;1.28;88.43
49835;BME280;35729;52.090;13.162;2023-03-04T01:56:02;101299.44;;;1.29;87.63
49835;BME280;35729;52.090;13.162;2023-03-04T01:58:38;101303.81;;;1.32;88.15
49835;BME280;35729;52.090;13.162;2023-03-04T02:01:06;101303.03;;;1.35;88.43
49835;BME280;35729;52.090;13.162;2023-03-04T02:03:36;101307.41;;;1.37;87.51
49835;BME280;35729;52.090;13.162;2023-03-04T02:06:05;101291.81;;;1.34;87.10
49835;BME280;35729;52.090;13.162;2023-03-04T02:08:36;101291.91;;;1.39;87.50
49835;BME280;35729;52.090;13.162;2023-03-04T02:11:04;101303.97;;;1.38;86.82
49835;BME280;35729;52.090;13.162;2023-03-04T02:13:33;101303.16;;;1.39;86.39
49835;BME280;35729;52.090;13.162;2023-03-04T02:16:01;101299.75;;;1.42;87.57
49835;BME280;35729;52.090;13.162;2023-03-04T02:18:30;101292.91;;;1.44;87.03
49835;BME280;35729;52.090;13.162;2023-03-04T02:21:05;101283.44;;;1.44;86.69
49835;BME280;35729;52.090;13.162;2023-03-04T02:23:43;101296.41;;;1.46;86.03
49835;BME280;35729;52.090;13.162;2023-03-04T02:26:18;101288.69;;;1.48;86.42
49835;BME280;35729;52.090;13.162;2023-03-04T02:28:49;101287.03;;;1.50;86.70
49835;BME280;35729;52.090;13.162;2023-03-04T02:31:22;101280.19;;;1.52;86.56
49835;BME280;35729;52.090;13.162;2023-03-04T02:33:53;101279.38;;;1.54;87.20
49835;BME280;35729;52.090;13.162;2023-03-04T02:36:23;101285.41;;;1.55;86.46
49835;BME280;35729;52.090;13.162;2023-03-04T02:38:53;101274.25;;;1.56;86.61
49835;BME280;35729;52.090;13.162;2023-03-04T02:41:25;101261.31;;;1.56;86.67
49835;BME280;35729;52.090;13.162;2023-03-04T02:43:56;101269.97;;;1.58;86.07
49835;BME280;35729;52.090;13.162;2023-03-04T02:46:24;101263.13;;;1.60;86.32
49835;BME280;35729;52.090;13.162;2023-03-04T02:48:53;101263.19;;;1.63;86.53
49835;BME280;35729;52.090;13.162;2023-03-04T02:51:21;101262.31;;;1.62;86.13
49835;BME280;35729;52.090;13.162;2023-03-04T02:53:50;101268.44;;;1.66;86.57
49835;BME280;35729;52.090;13.162;2023-03-04T02:56:18;101263.28;;;1.68;86.80
49835;BME280;35729;52.090;13.162;2023-03-04T02:58:49;101254.72;;;1.70;86.95
49835;BME280;35729;52.090;13.162;2023-03-04T03:01:18;101249.59;;;1.72;86.93
49835;BME280;35729;52.090;13.162;2023-03-04T03:03:46;101247.00;;;1.72;86.72
49835;BME280;35729;52.090;13.162;2023-03-04T03:06:15;101252.25;;;1.75;86.91
49835;BME280;35729;52.090;13.162;2023-03-04T03:08:43;101249.66;;;1.75;86.54
49835;BME280;35729;52.090;13.162;2023-03-04T03:11:12;101251.41;;;1.76;86.78
49835;BME280;35729;52.090;13.162;2023-03-04T03:13:40;101250.59;;;1.77;87.08
49835;BME280;35729;52.090;13.162;2023-03-04T03:16:11;101242.84;;;1.78;86.81
49835;BME280;35729;52.090;13.162;2023-03-04T03:18:40;101243.72;;;1.79;86.72
49835;BME280;35729;52.090;13.162;2023-03-04T03:21:08;101244.59;;;1.79;86.49
49835;BME280;35729;52.090;13.162;2023-03-04T03:23:37;101236.88;;;1.81;86.96
49835;BME280;35729;52.090;13.162;2023-03-04T03:26:05;101235.16;;;1.82;86.84
49835;BME280;35729;52.090;13.162;2023-03-04T03:28:34;101234.31;;;1.83;86.64
49835;BME280;35729;52.090;13.162;2023-03-04T03:31:03;101236.91;;;1.83;86.43
49835;BME280;35729;52.090;13.162;2023-03-04T03:33:34;101234.38;;;1.86;87.00
49835;BME280;35729;52.090;13.162;2023-03-04T03:36:03;101228.34;;;1.87;86.99
49835;BME280;35729;52.090;13.162;2023-03-04T03:38:32;101226.69;;;1.89;86.62
49835;BME280;35729;52.090;13.162;2023-03-04T03:41:01;101228.47;;;1.91;86.62
49835;BME280;35729;52.090;13.162;2023-03-04T03:43:29;101217.28;;;1.92;86.96
49835;BME280;35729;52.090;13.162;2023-03-04T03:45:58;101217.31;;;1.94;86.78
49835;BME280;35729;52.090;13.162;2023-03-04T03:48:26;101209.56;;;1.95;87.41
49835;BME280;35729;52.090;13.162;2023-03-04T03:50:57;101215.63;;;1.96;86.74
49835;BME280;35729;52.090;13.162;2023-03-04T03:53:26;101219.09;;;1.97;87.02
49835;BME280;35729;52.090;13.162;2023-03-04T03:55:54;101214.84;;;2.00;87.25
49835;BME280;35729;52.090;13.162;2023-03-04T03:58:23;101211.47;;;2.03;87.25
49835;BME280;35729;52.090;13.162;2023-03-04T04:00:52;101202.00;;;2.05;87.10
49835;BME280;35729;52.090;13.162;2023-03-04T04:03:20;101197.72;;;2.07;87.29
49835;BME280;35729;52.090;13.162;2023-03-04T04:05:49;101196.91;;;2.09;87.46
49835;BME280;35729;52.090;13.162;2023-03-04T04:08:20;101196.06;;;2.10;87.09
49835;BME280;35729;52.090;13.162;2023-03-04T04:10:48;101201.34;;;2.15;87.59
49835;BME280;35729;52.090;13.162;2023-03-04T04:13:17;101194.47;;;2.17;87.54
49835;BME280;35729;52.090;13.162;2023-03-04T04:15:45;101190.22;;;2.19;87.34
49835;BME280;35729;52.090;13.162;2023-03-04T04:18:14;101185.91;;;2.20;87.15
49835;BME280;35729;52.090;13.162;2023-03-04T04:20:42;101182.47;;;2.21;87.53
49835;BME280;35729;52.090;13.162;2023-03-04T04:23:11;101190.34;;;2.25;87.42
49835;BME280;35729;52.090;13.162;2023-03-04T04:25:42;101185.19;;;2.27;87.49
49835;BME280;35729;52.090;13.162;2023-03-04T04:28:10;101180.91;;;2.29;87.49
49835;BME280;35729;52.090;13.162;2023-03-04T04:30:39;101190.44;;;2.30;87.68
49835;BME280;35729;52.090;13.162;2023-03-04T04:33:08;101192.16;;;2.31;87.85
49835;BME280;35729;52.090;13.162;2023-03-04T04:35:37;101187.88;;;2.33;87.94
49835;BME280;35729;52.090;13.162;2023-03-04T04:38:06;101189.63;;;2.33;87.44
49835;BME280;35729;52.090;13.162;2023-03-04T04:40:35;101180.09;;;2.30;87.62
49835;BME280;35729;52.090;13.162;2023-03-04T04:43:06;101181.88;;;2.34;87.96
49835;BME280;35729;52.090;13.162;2023-03-04T04:45:34;101173.28;;;2.35;88.11
49835;BME280;35729;52.090;13.162;2023-03-04T04:48:03;101172.38;;;2.35;87.95
49835;BME280;35729;52.090;13.162;2023-03-04T04:50:38;101178.44;;;2.35;88.13
49835;BME280;35729;52.090;13.162;2023-03-04T04:53:07;101168.94;;;2.36;88.33
49835;BME280;35729;52.090;13.162;2023-03-04T04:55:35;101169.81;;;2.36;88.20
49835;BME280;35729;52.090;13.162;2023-03-04T04:58:07;101168.13;;;2.37;88.61
49835;BME280;35729;52.090;13.162;2023-03-04T05:00:35;101170.72;;;2.38;88.54
49835;BME280;35729;52.090;13.162;2023-03-04T05:03:04;101169.00;;;2.39;88.51
49835;BME280;35729;52.090;13.162;2023-03-04T05:05:32;101156.91;;;2.38;88.85
49835;BME280;35729;52.090;13.162;2023-03-04T05:08:01;101160.38;;;2.40;88.94
49835;BME280;35729;52.090;13.162;2023-03-04T05:10:29;101159.53;;;2.39;89.19
49835;BME280;35729;52.090;13.162;2023-03-04T05:12:58;101155.19;;;2.38;89.00
49835;BME280;35729;52.090;13.162;2023-03-04T05:15:29;101149.16;;;2.39;89.17
49835;BME280;35729;52.090;13.162;2023-03-04T05:17:57;101156.09;;;2.40;89.40
49835;BME280;35729;52.090;13.162;2023-03-04T05:20:26;101157.84;;;2.41;89.50
49835;BME280;35729;52.090;13.162;2023-03-04T05:22:54;101161.31;;;2.42;89.41
49835;BME280;35729;52.090;13.162;2023-03-04T05:25:22;101148.34;;;2.42;89.52
49835;BME280;35729;52.090;13.162;2023-03-04T05:27:52;101157.84;;;2.41;89.87
49835;BME280;35729;52.090;13.162;2023-03-04T05:30:20;101147.50;;;2.43;89.57
49835;BME280;35729;52.090;13.162;2023-03-04T05:32:51;101150.97;;;2.43;89.66
49835;BME280;35729;52.090;13.162;2023-03-04T05:35:20;101141.50;;;2.44;89.90
49835;BME280;35729;52.090;13.162;2023-03-04T05:37:48;101151.88;;;2.46;89.92
49835;BME280;35729;52.090;13.162;2023-03-04T05:40:18;101149.31;;;2.47;89.73
49835;BME280;35729;52.090;13.162;2023-03-04T05:42:46;101154.50;;;2.49;89.69
49835;BME280;35729;52.090;13.162;2023-03-04T05:45:15;101146.75;;;2.50;89.71
49835;BME280;35729;52.090;13.162;2023-03-04T05:47:43;101146.81;;;2.52;89.77
49835;BME280;35729;52.090;13.162;2023-03-04T05:50:21;101152.00;;;2.52;89.62
49835;BME280;35729;52.090;13.162;2023-03-04T05:52:51;101143.41;;;2.54;89.79
49835;BME280;35729;52.090;13.162;2023-03-04T05:55:19;101139.88;;;2.51;89.78
49835;BME280;35729;52.090;13.162;2023-03-04T05:57:48;101150.31;;;2.55;89.70
49835;BME280;35729;52.090;13.162;2023-03-04T06:00:17;101146.88;;;2.56;89.74
49835;BME280;35729;52.090;13.162;2023-03-04T06:02:45;101142.56;;;2.57;90.09
49835;BME280;35729;52.090;13.162;2023-03-04T06:05:14;101146.97;;;2.61;89.83
49835;BME280;35729;52.090;13.162;2023-03-04T06:07:45;101152.13;;;2.61;90.20
49835;BME280;35729;52.090;13.162;2023-03-04T06:10:15;101153.06;;;2.63;90.33
49835;BME280;35729;52.090;13.162;2023-03-04T06:12:44;101157.38;;;2.64;90.14
49835;BME280;35729;52.090;13.162;2023-03-04T06:15:13;101144.44;;;2.64;90.30
49835;BME280;35729;52.090;13.162;2023-03-04T06:17:41;101147.91;;;2.66;90.43
49835;BME280;35729;52.090;13.162;2023-03-04T06:20:11;101146.22;;;2.67;90.53
49835;BME280;35729;52.090;13.162;2023-03-04T06:22:40;101140.16;;;2.68;90.40
49835;BME280;35729;52.090;13.162;2023-03-04T06:25:11;101150.56;;;2.69;90.64
49835;BME280;35729;52.090;13.162;2023-03-04T06:27:40;101159.22;;;2.71;90.46
49835;BME280;35729;52.090;13.162;2023-03-04T06:30:09;101142.84;;;2.72;90.49
49835;BME280;35729;52.090;13.162;2023-03-04T06:32:38;101139.41;;;2.73;90.53
49835;BME280;35729;52.090;13.162;2023-03-04T06:35:09;101138.56;;;2.74;90.74
49835;BME280;35729;52.090;13.162;2023-03-04T06:37:38;101150.69;;;2.77;90.88
49835;BME280;35729;52.090;13.162;2023-03-04T06:40:07;101148.97;;;2.77;90.81
49835;BME280;35729;52.090;13.162;2023-03-04T06:42:39;101145.53;;;2.80;91.02
49835;BME280;35729;52.090;13.162;2023-03-04T06:45:09;101148.13;;;2.80;91.02
49835;BME280;35729;52.090;13.162;2023-03-04T06:47:38;101153.34;;;2.82;91.31
49835;BME280;35729;52.090;13.162;2023-03-04T06:50:07;101148.16;;;2.82;91.38
49835;BME280;35729;52.090;13.162;2023-03-04T06:52:36;101150.81;;;2.83;91.55
49835;BME280;35729;52.090;13.162;2023-03-04T06:55:07;101152.56;;;2.86;91.69
49835;BME280;35729;52.090;13.162;2023-03-04T06:57:40;101149.09;;;2.85;92.13
49835;BME280;35729;52.090;13.162;2023-03-04T07:00:16;101149.97;;;2.86;91.98
49835;BME280;35729;52.090;13.162;2023-03-04T07:02:45;101152.59;;;2.87;91.95
49835;BME280;35729;52.090;13.162;2023-03-04T07:05:13;101149.16;;;2.88;92.43
49835;BME280;35729;52.090;13.162;2023-03-04T07:07:42;101157.75;;;2.86;92.92
49835;BME280;35729;52.090;13.162;2023-03-04T07:10:10;101163.81;;;2.88;93.31
49835;BME280;35729;52.090;13.162;2023-03-04T07:12:41;101156.03;;;2.86;93.72
49835;BME280;35729;52.090;13.162;2023-03-04T07:15:10;101159.47;;;2.87;93.60
49835;BME280;35729;52.090;13.162;2023-03-04T07:17:39;101150.84;;;2.88;93.88
49835;BME280;35729;52.090;13.162;2023-03-04T07:20:09;101156.03;;;2.88;94.60
49835;BME280;35729;52.090;13.162;2023-03-04T07:22:37;101153.50;;;2.89;94.31
49835;BME280;35729;52.090;13.162;2023-03-04T07:25:07;101154.38;;;2.91;94.34
49835;BME280;35729;52.090;13.162;2023-03-04T07:27:36;101151.78;;;2.91;95.16
49835;BME280;35729;52.090;13.162;2023-03-04T07:30:09;101150.09;;;2.93;94.66
49835;BME280;35729;52.090;13.162;2023-03-04T07:32:38;101155.31;;;2.95;94.83
49835;BME280;35729;52.090;13.162;2023-03-04T07:35:07;101157.06;;;2.96;94.92
49835;BME280;35729;52.090;13.162;2023-03-04T07:37:35;101148.44;;;2.97;95.36
49835;BME280;35729;52.090;13.162;2023-03-04T07:40:06;101151.91;;;2.99;95.11
49835;BME280;35729;52.090;13.162;2023-03-04T07:42:35;101146.72;;;2.99;95.89
49835;BME280;35729;52.090;13.162;2023-03-04T07:45:04;101155.41;;;3.01;96.19
49835;BME280;35729;52.090;13.162;2023-03-04T07:47:37;101145.88;;;3.00;96.15
49835;BME280;35729;52.090;13.162;2023-03-04T07:50:06;101137.25;;;3.01;96.48
49835;BME280;35729;52.090;13.162;2023-03-04T07:52:37;101139.88;;;3.03;96.88
49835;BME280;35729;52.090;13.162;2023-03-04T07:55:06;101151.97;;;3.02;97.42
49835;BME280;35729;52.090;13.162;2023-03-04T07:57:37;101146.78;;;3.02;97.33
49835;BME280;35729;52.090;13.162;2023-03-04T08:00:08;101154.56;;;3.02;97.56
49835;BME280;35729;52.090;13.162;2023-03-04T08:02:39;101151.06;;;3.00;97.92
49835;BME280;35729;52.090;13.162;2023-03-04T08:05:08;101157.97;;;3.00;98.32
49835;BME280;35729;52.090;13.162;2023-03-04T08:07:37;101155.38;;;3.00;99.11
49835;BME280;35729;52.090;13.162;2023-03-04T08:10:06;101150.16;;;2.98;99.40
49835;BME280;35729;52.090;13.162;2023-03-04T08:12:35;101156.22;;;2.99;99.10
49835;BME280;35729;52.090;13.162;2023-03-04T08:15:05;101157.06;;;2.98;99.74
49835;BME280;35729;52.090;13.162;2023-03-04T08:17:34;101144.97;;;2.98;100.00
49835;BME280;35729;52.090;13.162;2023-03-04T08:20:06;101158.84;;;3.00;100.00
49835;BME280;35729;52.090;13.162;2023-03-04T08:22:35;101144.13;;;3.01;100.00
49835;BME280;35729;52.090;13.162;2023-03-04T08:25:04;101140.72;;;3.02;100.00
49835;BME280;35729;52.090;13.162;2023-03-04T08:27:33;101145.06;;;3.04;100.00
49835;BME280;35729;52.090;13.162;2023-03-04T08:30:01;101141.63;;;3.05;100.00
49835;BME280;35729;52.090;13.162;2023-03-04T08:32:30;101141.63;;;3.05;100.00
49835;BME280;35729;52.090;13.162;2023-03-04T08:34:59;101140.81;;;3.08;99.95
49835;BME280;35729;52.090;13.162;2023-03-04T08:37:31;101131.34;;;3.12;100.00
49835;BME280;35729;52.090;13.162;2023-03-04T08:39:59;101140.03;;;3.14;100.00
49835;BME280;35729;52.090;13.162;2023-03-04T08:42:28;101139.19;;;3.15;100.00
49835;BME280;35729;52.090;13.162;2023-03-04T08:44:56;101141.75;;;3.13;100.00
49835;BME280;35729;52.090;13.162;2023-03-04T08:47:25;101144.41;;;3.16;100.00
49835;BME280;35729;52.090;13.162;2023-03-04T08:49:53;101131.44;;;3.15;100.00
49835;BME280;35729;52.090;13.162;2023-03-04T08:52:23;101127.13;;;3.17;100.00
49835;BME280;35729;52.090;13.162;2023-03-04T08:54:54;101134.03;;;3.18;100.00
49835;BME280;35729;52.090;13.162;2023-03-04T08:57:22;101137.56;;;3.20;100.00
49835;BME280;35729;52.090;13.162;2023-03-04T08:59:51;101131.47;;;3.21;100.00
49835;BME280;35729;52.090;13.162;2023-03-04T09:02:19;101127.19;;;3.23;100.00
49835;BME280;35729;52.090;13.162;2023-03-04T09:04:48;101132.41;;;3.24;100.00
49835;BME280;35729;52.090;13.162;2023-03-04T09:07:16;101133.31;;;3.28;100.00
49835;BME280;35729;52.090;13.162;2023-03-04T09:09:45;101136.00;;;3.33;100.00
49835;BME280;35729;52.090;13.162;2023-03-04T09:12:16;101133.44;;;3.37;100.00
49835;BME280;35729;52.090;13.162;2023-03-04T09:14:44;101124.88;;;3.41;100.00
49835;BME280;35729;52.090;13.162;2023-03-04T09:17:13;101137.03;;;3.46;100.00
49835;BME280;35729;52.090;13.162;2023-03-04T09:19:41;101128.44;;;3.50;100.00
49835;BME280;35729;52.090;13.162;2023-03-04T09:22:10;101127.66;;;3.54;98.79
49835;BME280;35729;52.090;13.162;2023-03-04T09:24:39;101132.03;;;3.58;98.36
49835;BME280;35729;52.090;13.162;2023-03-04T09:27:08;101128.59;;;3.62;98.31
49835;BME280;35729;52.090;13.162;2023-03-04T09:29:39;101124.34;;;3.66;97.00
49835;BME280;35729;52.090;13.162;2023-03-04T09:32:08;101133.91;;;3.71;96.74
49835;BME280;35729;52.090;13.162;2023-03-04T09:34:37;101129.69;;;3.78;97.23
49835;BME280;35729;52.090;13.162;2023-03-04T09:37:05;101126.28;;;3.84;95.28
49835;BME280;35729;52.090;13.162;2023-03-04T09:39:34;101130.69;;;3.91;95.14
49835;BME280;35729;52.090;13.162;2023-03-04T09:42:03;101123.84;;;3.96;94.90
49835;BME280;35729;52.090;13.162;2023-03-04T09:44:36;101110.94;;;4.04;93.50
49835;BME280;35729;52.090;13.162;2023-03-04T09:47:11;101118.78;;;4.10;92.94
49835;BME280;35729;52.090;13.162;2023-03-04T09:49:43;101113.66;;;4.16;91.21
49835;BME280;35729;52.090;13.162;2023-03-04T09:52:20;101128.44;;;4.22;87.99
49835;BME280;35729;52.090;13.162;2023-03-04T09:55:03;101100.81;;;4.29;88.63
49835;BME280;35729;52.090;13.162;2023-03-04T09:57:43;101121.66;;;4.35;86.97
49835;BME280;35729;52.090;13.162;2023-03-04T10:00:16;101101.78;;;4.42;88.52
49835;BME280;35729;52.090;13.162;2023-03-04T10:03:10;101091.47;;;4.52;88.41
49835;BME280;35729;52.090;13.162;2023-03-04T10:05:43;101104.56;;;4.62;89.31
49835;BME280;35729;52.090;13.162;2023-03-04T10:08:40;101109.84;;;4.68;86.42
49835;BME280;35729;52.090;13.162;2023-03-04T10:11:14;101116.78;;;4.73;87.45
49835;BME280;35729;52.090;13.162;2023-03-04T10:13:52;101096.03;;;4.78;86.19
49835;BME280;35729;52.090;13.162;2023-03-04T10:16:26;101099.53;;;4.80;86.07
49835;BME280;35729;52.090;13.162;2023-03-04T10:19:17;101102.16;;;4.85;86.24
49835;BME280;35729;52.090;13.162;2023-03-04T10:21:49;101106.56;;;4.94;86.86
49835;BME280;35729;52.090;13.162;2023-03-04T10:24:21;101117.00;;;5.01;85.29
49835;BME280;35729;52.090;13.162;2023-03-04T10:26:54;101110.94;;;5.02;85.00
49835;BME280;35729;52.090;13.162;2023-03-04T10:29:27;101098.78;;;4.98;84.80
49835;BME280;35729;52.090;13.162;2023-03-04T10:31:57;101108.31;;;4.96;86.37
49835;BME280;35729;52.090;13.162;2023-03-04T10:34:29;101095.28;;;4.93;86.51
49835;BME280;35729;52.090;13.162;2023-03-04T10:36:59;101106.56;;;4.92;86.44
49835;BME280;35729;52.090;13.162;2023-03-04T10:39:31;101105.66;;;4.87;85.42
49835;BME280;35729;52.090;13.162;2023-03-04T10:42:01;101090.84;;;4.81;85.16
49835;BME280;35729;52.090;13.162;2023-03-04T10:44:31;101119.44;;;4.80;83.97
49835;BME280;35729;52.090;13.162;2023-03-04T10:47:08;101095.19;;;4.81;83.61
49835;BME280;35729;52.090;13.162;2023-03-04T10:49:52;101090.84;;;4.81;82.97
49835;BME280;35729;52.090;13.162;2023-03-04T10:52:26;101104.75;;;4.83;84.00
49835;BME280;35729;52.090;13.162;2023-03-04T10:54:57;101104.75;;;4.85;84.27
49835;BME280;35729;52.090;13.162;2023-03-04T10:57:33;101097.00;;;4.91;85.34
49835;BME280;35729;52.090;13.162;2023-03-04T11:00:19;101103.09;;;4.96;85.38
49835;BME280;35729;52.090;13.162;2023-03-04T11:02:51;101105.75;;;4.99;85.80
49835;BME280;35729;52.090;13.162;2023-03-04T11:05:24;101106.59;;;5.01;85.50
49835;BME280;35729;52.090;13.162;2023-03-04T11:07:54;101102.28;;;5.03;84.36
49835;BME280;35729;52.090;13.162;2023-03-04T11:10:25;101100.59;;;5.05;85.35
49835;BME280;35729;52.090;13.162;2023-03-04T11:12:59;101108.38;;;5.05;84.69
49835;BME280;35729;52.090;13.162;2023-03-04T11:15:29;101092.78;;;5.05;84.31
49835;BME280;35729;52.090;13.162;2023-03-04T11:17:59;101103.16;;;5.04;84.31
49835;BME280;35729;52.090;13.162;2023-03-04T11:20:34;101091.00;;;5.01;83.94
49835;BME280;35729;52.090;13.162;2023-03-04T11:23:08;101093.59;;;4.98;83.42
49835;BME280;35729;52.090;13.162;2023-03-04T11:25:41;101103.94;;;4.94;82.59
49835;BME280;35729;52.090;13.162;2023-03-04T11:28:14;101098.75;;;4.92;82.24
49835;BME280;35729;52.090;13.162;2023-03-04T11:30:49;101092.66;;;4.90;83.72
49835;BME280;35729;52.090;13.162;2023-03-04T11:33:24;101086.56;;;4.85;81.65
49835;BME280;35729;52.090;13.162;2023-03-04T11:36:07;101101.28;;;4.84;81.52
49835;BME280;35729;52.090;13.162;2023-03-04T11:38:44;101102.16;;;4.83;82.04
49835;BME280;35729;52.090;13.162;2023-03-04T11:41:17;101094.34;;;4.80;80.84
49835;BME280;35729;52.090;13.162;2023-03-04T11:43:54;101108.19;;;4.79;81.81
49835;BME280;35729;52.090;13.162;2023-03-04T11:52:41;101107.28;;;4.77;82.04
49835;BME280;35729;52.090;13.162;2023-03-04T11:55:32;101096.03;;;4.77;79.75
49835;BME280;35729;52.090;13.162;2023-03-04T11:58:23;101098.63;;;4.77;81.08
49835;BME280;35729;52.090;13.162;2023-03-04T12:01:06;101104.66;;;4.72;77.64
49835;BME280;35729;52.090;13.162;2023-03-04T12:03:57;101100.34;;;4.73;77.37
49835;BME280;35729;52.090;13.162;2023-03-04T12:06:37;101110.69;;;4.70;73.74
49835;BME280;35729;52.090;13.162;2023-03-04T12:09:28;101102.03;;;4.66;73.55
49835;BME280;35729;52.090;13.162;2023-03-04T12:12:11;101106.38;;;4.69;74.97
49835;BME280;35729;52.090;13.162;2023-03-04T12:14:50;101100.34;;;4.71;77.07
49835;BME280;35729;52.090;13.162;2023-03-04T12:17:42;101096.84;;;4.72;77.07
49835;BME280;35729;52.090;13.162;2023-03-04T12:20:26;101097.75;;;4.76;77.68
49835;BME280;35729;52.090;13.162;2023-03-04T12:23:10;101095.16;;;4.75;77.28
49835;BME280;35729;52.090;13.162;2023-03-04T12:25:54;101089.06;;;4.72;76.08
49835;BME280;35729;52.090;13.162;2023-03-04T12:28:41;101090.78;;;4.70;76.38
49835;BME280;35729;52.090;13.162;2023-03-04T12:31:30;101086.44;;;4.72;76.61
49835;BME280;35729;52.090;13.162;2023-03-04T12:34:14;101087.34;;;4.71;78.07
49835;BME280;35729;52.090;13.162;2023-03-04T12:37:08;101092.50;;;4.68;77.10
49835;BME280;35729;52.090;13.162;2023-03-04T12:39:39;101083.00;;;4.70;77.17
49835;BME280;35729;52.090;13.162;2023-03-04T12:42:37;101085.59;;;4.69;77.51
49835;BME280;35729;52.090;13.162;2023-03-04T12:45:16;101076.03;;;4.69;79.16
49835;BME280;35729;52.090;13.162;2023-03-04T12:47:54;101089.03;;;4.69;78.40
49835;BME280;35729;52.090;13.162;2023-03-04T12:50:31;101092.50;;;4.67;76.98
49835;BME280;35729;52.090;13.162;2023-03-04T12:53:11;101077.75;;;4.64;77.24
49835;BME280;35729;52.090;13.162;2023-03-04T12:55:48;101091.59;;;4.63;75.44
49835;BME280;35729;52.090;13.162;2023-03-04T12:58:22;101089.91;;;4.68;76.91
49835;BME280;35729;52.090;13.162;2023-03-04T13:00:58;101089.09;;;4.76;78.26
49835;BME280;35729;52.090;13.162;2023-03-04T13:03:37;101077.00;;;4.81;78.18
49835;BME280;35729;52.090;13.162;2023-03-04T13:06:18;101089.16;;;4.86;75.69
49835;BME280;35729;52.090;13.162;2023-03-04T13:08:56;101082.25;;;4.90;72.05
49835;BME280;35729;52.090;13.162;2023-03-04T13:11:51;101087.50;;;4.96;72.96
49835;BME280;35729;52.090;13.162;2023-03-04T13:14:33;101082.34;;;4.99;71.32
49835;BME280;35729;52.090;13.162;2023-03-04T13:17:38;101088.44;;;5.04;70.66
49835;BME280;35729;52.090;13.162;2023-03-04T13:20:18;101080.63;;;5.08;70.39